sensor_id;sensor_type;location;lat;lon;timestamp;temperature;humidity
39019;DHT22;24786;51.984;5.872;2022-11-06T00:00:37;9.70;99.90
39019;DHT22;24786;51.984;5.872;2022-11-06T00:03:03;9.70;99.90
39019;DHT22;24786;51.984;5.872;2022-11-06T00:05:30;9.70;99.90
39019;DHT22;24786;51.984;5.872;2022-11-06T00:08:14;9.70;99.90
39019;DHT22;24786;51.984;5.872;2022-11-06T00:10:41;9.70;99.90
39019;DHT22;24786;51.984;5.872;2022-11-06T00:13:07;9.60;99.90
39019;DHT22;24786;51.984;5.872;2022-11-06T00:15:33;9.60;99.90
39019;DHT22;24786;51.984;5.872;2022-11-06T00:17:58;9.60;99.90
39019;DHT22;24786;51.984;5.872;2022-11-06T00:20:24;9.60;99.90
39019;DHT22;24786;51.984;5.872;2022-11-06T00:22:49;9.60;99.90
39019;DHT22;24786;51.984;5.872;2022-11-06T00:25:15;9.60;99.90
39019;DHT22;24786;51.984;5.872;2022-11-06T00:27:41;9.50;99.90
39019;DHT22;24786;51.984;5.872;2022-11-06T00:30:09;9.70;99.90
39019;DHT22;24786;51.984;5.872;2022-11-06T00:32:36;9.70;99.90
39019;DHT22;24786;51.984;5.872;2022-11-06T00:35:02;9.80;99.90
39019;DHT22;24786;51.984;5.872;2022-11-06T00:37:28;9.80;99.90
39019;DHT22;24786;51.984;5.872;2022-11-06T00:39:53;9.80;99.90
39019;DHT22;24786;51.984;5.872;2022-11-06T00:42:19;9.80;99.90
39019;DHT22;24786;51.984;5.872;2022-11-06T00:44:44;9.80;99.90
39019;DHT22;24786;51.984;5.872;2022-11-06T00:47:10;9.80;99.90
39019;DHT22;24786;51.984;5.872;2022-11-06T00:49:36;9.80;99.90
39019;DHT22;24786;51.984;5.872;2022-11-06T00:52:03;9.80;99.90
39019;DHT22;24786;51.984;5.872;2022-11-06T00:54:28;9.80;99.90
39019;DHT22;24786;51.984;5.872;2022-11-06T00:56:54;9.80;99.90
39019;DHT22;24786;51.984;5.872;2022-11-06T00:59:19;9.80;99.90
39019;DHT22;24786;51.984;5.872;2022-11-06T01:01:45;9.80;99.90
39019;DHT22;24786;51.984;5.872;2022-11-06T01:04:16;9.80;99.90
39019;DHT22;24786;51.984;5.872;2022-11-06T01:06:44;9.80;99.90
39019;DHT22;24786;51.984;5.872;2022-11-06T01:09:12;9.80;99.90
39019;DHT22;24786;51.984;5.872;2022-11-06T01:11:41;9.80;99.90
39019;DHT22;24786;51.984;5.872;2022-11-06T01:14:07;9.70;99.90
39019;DHT22;24786;51.984;5.872;2022-11-06T01:16:33;9.80;99.90
39019;DHT22;24786;51.984;5.872;2022-11-06T01:19:00;9.70;99.90
39019;DHT22;24786;51.984;5.872;2022-11-06T01:21:35;9.70;99.90
39019;DHT22;24786;51.984;5.872;2022-11-06T01:24:03;9.70;99.90
39019;DHT22;24786;51.984;5.872;2022-11-06T01:26:29;9.70;99.90
39019;DHT22;24786;51.984;5.872;2022-11-06T01:28:56;9.70;99.90
39019;DHT22;24786;51.984;5.872;2022-11-06T01:31:25;9.70;99.90
39019;DHT22;24786;51.984;5.872;2022-11-06T01:33:52;9.70;99.90
39019;DHT22;24786;51.984;5.872;2022-11-06T01:36:19;9.70;99.90
39019;DHT22;24786;51.984;5.872;2022-11-06T01:38:47;9.70;99.90
39019;DHT22;24786;51.984;5.872;2022-11-06T01:41:16;9.70;99.90
39019;DHT22;24786;51.984;5.872;2022-11-06T01:44:00;9.70;99.90
39019;DHT22;24786;51.984;5.872;2022-11-06T01:46:31;9.70;99.90
39019;DHT22;24786;51.984;5.872;2022-11-06T01:49:07;9.80;99.90
39019;DHT22;24786;51.984;5.872;2022-11-06T01:51:41;9.80;99.90
39019;DHT22;24786;51.984;5.872;2022-11-06T01:54:07;9.70;99.90
39019;DHT22;24786;51.984;5.872;2022-11-06T01:56:35;9.70;99.90
39019;DHT22;24786;51.984;5.872;2022-11-06T01:59:02;9.70;99.90
39019;DHT22;24786;51.984;5.872;2022-11-06T02:01:29;9.60;99.90
39019;DHT22;24786;51.984;5.872;2022-11-06T02:04:04;9.60;99.90
39019;DHT22;24786;51.984;5.872;2022-11-06T02:06:32;9.60;99.90
39019;DHT22;24786;51.984;5.872;2022-11-06T02:08:58;9.60;99.90
39019;DHT22;24786;51.984;5.872;2022-11-06T02:11:24;9.60;99.90
39019;DHT22;24786;51.984;5.872;2022-11-06T02:16:47;9.60;99.90
39019;DHT22;24786;51.984;5.872;2022-11-06T02:27:17;9.60;99.90
39019;DHT22;24786;51.984;5.872;2022-11-06T02:30:01;9.60;99.90
39019;DHT22;24786;51.984;5.872;2022-11-06T02:32:44;9.70;99.90
39019;DHT22;24786;51.984;5.872;2022-11-06T02:37:43;9.70;99.90
39019;DHT22;24786;51.984;5.872;2022-11-06T02:40:11;9.70;99.90
39019;DHT22;24786;51.984;5.872;2022-11-06T02:42:42;9.70;99.90
39019;DHT22;24786;51.984;5.872;2022-11-06T02:45:10;9.70;99.90
39019;DHT22;24786;51.984;5.872;2022-11-06T02:47:38;9.70;99.90
39019;DHT22;24786;51.984;5.872;2022-11-06T02:50:20;9.70;99.90
39019;DHT22;24786;51.984;5.872;2022-11-06T02:52:51;9.70;99.90
39019;DHT22;24786;51.984;5.872;2022-11-06T02:55:26;9.70;99.90
39019;DHT22;24786;51.984;5.872;2022-11-06T02:57:56;9.70;99.90
39019;DHT22;24786;51.984;5.872;2022-11-06T03:00:22;9.70;99.90
39019;DHT22;24786;51.984;5.872;2022-11-06T03:03:09;9.70;99.90
39019;DHT22;24786;51.984;5.872;2022-11-06T03:05:53;9.70;99.90
39019;DHT22;24786;51.984;5.872;2022-11-06T03:08:32;9.70;99.90
39019;DHT22;24786;51.984;5.872;2022-11-06T03:11:08;9.70;99.90
39019;DHT22;24786;51.984;5.872;2022-11-06T03:19:29;9.80;99.90
39019;DHT22;24786;51.984;5.872;2022-11-06T03:25:23;9.80;99.90
39019;DHT22;24786;51.984;5.872;2022-11-06T03:28:09;9.80;99.90
39019;DHT22;24786;51.984;5.872;2022-11-06T03:30:41;9.80;99.90
39019;DHT22;24786;51.984;5.872;2022-11-06T03:33:12;9.80;99.90
39019;DHT22;24786;51.984;5.872;2022-11-06T03:35:46;9.80;99.90
39019;DHT22;24786;51.984;5.872;2022-11-06T03:38:26;9.80;99.90
39019;DHT22;24786;51.984;5.872;2022-11-06T03:40:57;9.80;99.90
39019;DHT22;24786;51.984;5.872;2022-11-06T03:43:27;9.80;99.90
39019;DHT22;24786;51.984;5.872;2022-11-06T03:45:55;9.90;99.90
39019;DHT22;24786;51.984;5.872;2022-11-06T03:49:09;9.80;99.90
39019;DHT22;24786;51.984;5.872;2022-11-06T03:51:20;9.80;99.90
39019;DHT22;24786;51.984;5.872;2022-11-06T03:53:55;9.90;99.90
39019;DHT22;24786;51.984;5.872;2022-11-06T03:56:44;9.90;99.90
39019;DHT22;24786;51.984;5.872;2022-11-06T03:59:12;9.90;99.90
39019;DHT22;24786;51.984;5.872;2022-11-06T04:01:44;9.90;99.90
39019;DHT22;24786;51.984;5.872;2022-11-06T04:07:12;9.90;99.90
39019;DHT22;24786;51.984;5.872;2022-11-06T04:09:40;9.90;99.90
39019;DHT22;24786;51.984;5.872;2022-11-06T04:12:27;10.00;99.90
39019;DHT22;24786;51.984;5.872;2022-11-06T04:15:35;10.00;99.90
39019;DHT22;24786;51.984;5.872;2022-11-06T04:18:09;10.00;99.90
39019;DHT22;24786;51.984;5.872;2022-11-06T04:20:46;10.00;99.90
39019;DHT22;24786;51.984;5.872;2022-11-06T04:26:24;10.00;99.90
39019;DHT22;24786;51.984;5.872;2022-11-06T04:31:58;10.00;99.90
39019;DHT22;24786;51.984;5.872;2022-11-06T04:38:00;10.00;99.90
39019;DHT22;24786;51.984;5.872;2022-11-06T04:43:32;10.10;99.90
39019;DHT22;24786;51.984;5.872;2022-11-06T04:46:01;10.10;99.90
39019;DHT22;24786;51.984;5.872;2022-11-06T04:48:29;10.10;99.90
39019;DHT22;24786;51.984;5.872;2022-11-06T04:51:00;10.10;99.90
39019;DHT22;24786;51.984;5.872;2022-11-06T04:53:28;10.10;99.90
39019;DHT22;24786;51.984;5.872;2022-11-06T04:56:00;10.10;99.90
39019;DHT22;24786;51.984;5.872;2022-11-06T04:58:25;10.10;99.90
39019;DHT22;24786;51.984;5.872;2022-11-06T05:00:51;10.20;99.90
39019;DHT22;24786;51.984;5.872;2022-11-06T05:03:17;10.20;99.90
39019;DHT22;24786;51.984;5.872;2022-11-06T05:05:43;10.20;99.90
39019;DHT22;24786;51.984;5.872;2022-11-06T05:08:13;10.20;99.90
39019;DHT22;24786;51.984;5.872;2022-11-06T05:10:41;10.20;99.90
39019;DHT22;24786;51.984;5.872;2022-11-06T05:13:07;10.10;99.90
39019;DHT22;24786;51.984;5.872;2022-11-06T05:15:32;10.10;99.90
39019;DHT22;24786;51.984;5.872;2022-11-06T05:17:58;10.10;99.90
39019;DHT22;24786;51.984;5.872;2022-11-06T05:20:24;10.10;99.90
39019;DHT22;24786;51.984;5.872;2022-11-06T05:22:49;10.10;99.90
39019;DHT22;24786;51.984;5.872;2022-11-06T05:25:32;10.10;99.90
39019;DHT22;24786;51.984;5.872;2022-11-06T05:27:59;10.10;99.90
39019;DHT22;24786;51.984;5.872;2022-11-06T05:30:25;10.10;99.90
39019;DHT22;24786;51.984;5.872;2022-11-06T05:32:51;10.10;99.90
39019;DHT22;24786;51.984;5.872;2022-11-06T05:35:17;10.10;99.90
39019;DHT22;24786;51.984;5.872;2022-11-06T05:37:44;10.10;99.90
39019;DHT22;24786;51.984;5.872;2022-11-06T05:40:10;10.10;99.90
39019;DHT22;24786;51.984;5.872;2022-11-06T05:42:37;10.20;99.90
39019;DHT22;24786;51.984;5.872;2022-11-06T05:45:03;10.20;99.90
39019;DHT22;24786;51.984;5.872;2022-11-06T05:47:29;10.20;99.90
39019;DHT22;24786;51.984;5.872;2022-11-06T05:49:55;10.20;99.90
39019;DHT22;24786;51.984;5.872;2022-11-06T05:52:20;10.20;99.90
39019;DHT22;24786;51.984;5.872;2022-11-06T05:54:46;10.20;99.90
39019;DHT22;24786;51.984;5.872;2022-11-06T05:57:12;10.20;99.90
39019;DHT22;24786;51.984;5.872;2022-11-06T05:59:37;10.20;99.90
39019;DHT22;24786;51.984;5.872;2022-11-06T06:02:03;10.20;99.90
39019;DHT22;24786;51.984;5.872;2022-11-06T06:04:29;10.20;99.90
39019;DHT22;24786;51.984;5.872;2022-11-06T06:06:54;10.20;99.90
39019;DHT22;24786;51.984;5.872;2022-11-06T06:09:20;10.10;99.90
39019;DHT22;24786;51.984;5.872;2022-11-06T06:11:48;10.10;99.90
39019;DHT22;24786;51.984;5.872;2022-11-06T06:14:14;10.10;99.90
39019;DHT22;24786;51.984;5.872;2022-11-06T06:16:40;10.10;99.90
39019;DHT22;24786;51.984;5.872;2022-11-06T06:19:05;10.10;99.90
39019;DHT22;24786;51.984;5.872;2022-11-06T06:21:31;10.10;99.90
39019;DHT22;24786;51.984;5.872;2022-11-06T06:23:56;10.10;99.90
39019;DHT22;24786;51.984;5.872;2022-11-06T06:26:22;10.10;99.90
39019;DHT22;24786;51.984;5.872;2022-11-06T06:28:48;10.10;99.90
39019;DHT22;24786;51.984;5.872;2022-11-06T06:31:14;10.10;99.90
39019;DHT22;24786;51.984;5.872;2022-11-06T06:33:39;10.10;99.90
39019;DHT22;24786;51.984;5.872;2022-11-06T06:36:05;10.10;99.90
39019;DHT22;24786;51.984;5.872;2022-11-06T06:38:31;10.10;99.90
39019;DHT22;24786;51.984;5.872;2022-11-06T06:41:04;10.10;99.90
39019;DHT22;24786;51.984;5.872;2022-11-06T06:43:30;10.10;99.90
39019;DHT22;24786;51.984;5.872;2022-11-06T06:46:01;10.10;99.90
39019;DHT22;24786;51.984;5.872;2022-11-06T06:48:27;10.10;99.90
39019;DHT22;24786;51.984;5.872;2022-11-06T06:50:57;10.00;99.90
39019;DHT22;24786;51.984;5.872;2022-11-06T06:53:23;10.00;99.90
39019;DHT22;24786;51.984;5.872;2022-11-06T06:55:48;10.10;99.90
39019;DHT22;24786;51.984;5.872;2022-11-06T06:58:14;10.00;99.90
39019;DHT22;24786;51.984;5.872;2022-11-06T07:00:40;10.10;99.90
39019;DHT22;24786;51.984;5.872;2022-11-06T07:03:06;10.20;99.90
39019;DHT22;24786;51.984;5.872;2022-11-06T07:05:31;10.10;99.90
39019;DHT22;24786;51.984;5.872;2022-11-06T07:07:57;10.10;99.90
39019;DHT22;24786;51.984;5.872;2022-11-06T07:10:22;10.20;99.90
39019;DHT22;24786;51.984;5.872;2022-11-06T07:12:48;10.20;99.90
39019;DHT22;24786;51.984;5.872;2022-11-06T07:15:14;10.20;99.90
39019;DHT22;24786;51.984;5.872;2022-11-06T07:17:40;10.20;99.90
39019;DHT22;24786;51.984;5.872;2022-11-06T07:20:06;10.20;99.90
39019;DHT22;24786;51.984;5.872;2022-11-06T07:22:32;10.20;99.90
39019;DHT22;24786;51.984;5.872;2022-11-06T07:24:57;10.20;99.90
39019;DHT22;24786;51.984;5.872;2022-11-06T07:27:23;10.30;99.90
39019;DHT22;24786;51.984;5.872;2022-11-06T07:29:48;10.40;99.90
39019;DHT22;24786;51.984;5.872;2022-11-06T07:32:15;10.30;99.90
39019;DHT22;24786;51.984;5.872;2022-11-06T07:34:41;10.30;99.90
39019;DHT22;24786;51.984;5.872;2022-11-06T07:37:09;10.40;99.90
39019;DHT22;24786;51.984;5.872;2022-11-06T07:39:51;10.50;99.90
39019;DHT22;24786;51.984;5.872;2022-11-06T07:42:26;10.50;99.90
39019;DHT22;24786;51.984;5.872;2022-11-06T07:45:04;10.50;99.90
39019;DHT22;24786;51.984;5.872;2022-11-06T07:47:30;10.50;99.90
39019;DHT22;24786;51.984;5.872;2022-11-06T07:50:08;10.50;99.90
39019;DHT22;24786;51.984;5.872;2022-11-06T07:52:46;10.60;99.90
39019;DHT22;24786;51.984;5.872;2022-11-06T07:55:14;10.60;99.90
39019;DHT22;24786;51.984;5.872;2022-11-06T07:57:40;10.60;99.90
39019;DHT22;24786;51.984;5.872;2022-11-06T08:00:07;10.60;99.90
39019;DHT22;24786;51.984;5.872;2022-11-06T08:02:36;10.60;99.90
39019;DHT22;24786;51.984;5.872;2022-11-06T08:05:02;10.60;99.90
39019;DHT22;24786;51.984;5.872;2022-11-06T08:07:39;10.60;99.90
39019;DHT22;24786;51.984;5.872;2022-11-06T08:10:05;10.60;99.90
39019;DHT22;24786;51.984;5.872;2022-11-06T08:12:43;10.70;99.90
39019;DHT22;24786;51.984;5.872;2022-11-06T08:15:11;10.70;99.90
39019;DHT22;24786;51.984;5.872;2022-11-06T08:17:43;10.70;99.90
39019;DHT22;24786;51.984;5.872;2022-11-06T08:20:18;10.80;99.90
39019;DHT22;24786;51.984;5.872;2022-11-06T08:22:43;10.80;99.90
39019;DHT22;24786;51.984;5.872;2022-11-06T08:25:09;10.80;99.90
39019;DHT22;24786;51.984;5.872;2022-11-06T08:27:35;10.90;99.90
39019;DHT22;24786;51.984;5.872;2022-11-06T08:30:01;10.90;99.90
39019;DHT22;24786;51.984;5.872;2022-11-06T08:32:27;11.00;99.90
39019;DHT22;24786;51.984;5.872;2022-11-06T08:34:53;11.10;99.90
39019;DHT22;24786;51.984;5.872;2022-11-06T08:37:19;11.10;99.90
39019;DHT22;24786;51.984;5.872;2022-11-06T08:39:57;11.20;99.90
39019;DHT22;24786;51.984;5.872;2022-11-06T08:42:22;11.20;99.90
39019;DHT22;24786;51.984;5.872;2022-11-06T08:44:48;11.30;99.90
39019;DHT22;24786;51.984;5.872;2022-11-06T08:47:14;11.30;99.90
39019;DHT22;24786;51.984;5.872;2022-11-06T08:49:39;11.30;99.90
39019;DHT22;24786;51.984;5.872;2022-11-06T08:52:05;11.30;99.90
39019;DHT22;24786;51.984;5.872;2022-11-06T08:54:30;11.30;99.90
39019;DHT22;24786;51.984;5.872;2022-11-06T08:56:56;11.40;99.90
39019;DHT22;24786;51.984;5.872;2022-11-06T08:59:22;11.40;99.90
39019;DHT22;24786;51.984;5.872;2022-11-06T09:01:48;11.30;99.90
39019;DHT22;24786;51.984;5.872;2022-11-06T09:04:13;11.40;99.90
39019;DHT22;24786;51.984;5.872;2022-11-06T09:06:39;11.40;99.90
39019;DHT22;24786;51.984;5.872;2022-11-06T09:09:05;11.40;99.90
39019;DHT22;24786;51.984;5.872;2022-11-06T09:11:31;11.30;99.90
39019;DHT22;24786;51.984;5.872;2022-11-06T09:13:57;11.30;99.90
39019;DHT22;24786;51.984;5.872;2022-11-06T09:16:23;11.30;99.90
39019;DHT22;24786;51.984;5.872;2022-11-06T09:18:53;11.30;99.90
39019;DHT22;24786;51.984;5.872;2022-11-06T09:21:18;11.30;99.90
39019;DHT22;24786;51.984;5.872;2022-11-06T09:23:44;11.30;99.90
39019;DHT22;24786;51.984;5.872;2022-11-06T09:26:11;11.30;99.90
39019;DHT22;24786;51.984;5.872;2022-11-06T09:28:37;11.40;99.90
39019;DHT22;24786;51.984;5.872;2022-11-06T09:31:02;11.40;99.90
39019;DHT22;24786;51.984;5.872;2022-11-06T09:33:28;11.50;99.90
39019;DHT22;24786;51.984;5.872;2022-11-06T09:35:54;11.60;99.90
39019;DHT22;24786;51.984;5.872;2022-11-06T09:38:19;11.70;99.90
39019;DHT22;24786;51.984;5.872;2022-11-06T09:41:04;11.70;99.90
39019;DHT22;24786;51.984;5.872;2022-11-06T09:43:59;11.80;99.90
39019;DHT22;24786;51.984;5.872;2022-11-06T09:46:30;11.80;99.90
39019;DHT22;24786;51.984;5.872;2022-11-06T09:49:09;11.90;99.90
39019;DHT22;24786;51.984;5.872;2022-11-06T09:51:59;11.90;99.90
39019;DHT22;24786;51.984;5.872;2022-11-06T09:57:08;11.90;99.90
39019;DHT22;24786;51.984;5.872;2022-11-06T09:59:36;12.00;99.90
39019;DHT22;24786;51.984;5.872;2022-11-06T10:07:41;12.10;99.90
39019;DHT22;24786;51.984;5.872;2022-11-06T10:10:14;12.20;99.90
39019;DHT22;24786;51.984;5.872;2022-11-06T10:13:11;12.20;99.90
39019;DHT22;24786;51.984;5.872;2022-11-06T10:15:47;12.30;99.90
39019;DHT22;24786;51.984;5.872;2022-11-06T10:18:42;12.30;99.90
39019;DHT22;24786;51.984;5.872;2022-11-06T10:21:23;12.40;99.90
39019;DHT22;24786;51.984;5.872;2022-11-06T10:23:57;12.30;99.90
39019;DHT22;24786;51.984;5.872;2022-11-06T10:26:39;12.50;99.90
39019;DHT22;24786;51.984;5.872;2022-11-06T10:34:19;12.50;99.90
39019;DHT22;24786;51.984;5.872;2022-11-06T10:39:25;12.60;99.90
39019;DHT22;24786;51.984;5.872;2022-11-06T10:42:17;12.60;99.90
39019;DHT22;24786;51.984;5.872;2022-11-06T10:44:59;12.70;99.90
39019;DHT22;24786;51.984;5.872;2022-11-06T10:47:30;12.70;99.90
39019;DHT22;24786;51.984;5.872;2022-11-06T10:49:59;12.80;99.90
39019;DHT22;24786;51.984;5.872;2022-11-06T10:52:44;12.70;99.90
39019;DHT22;24786;51.984;5.872;2022-11-06T10:57:57;12.80;99.90
39019;DHT22;24786;51.984;5.872;2022-11-06T11:00:23;12.80;99.90
39019;DHT22;24786;51.984;5.872;2022-11-06T11:02:55;12.80;99.90
39019;DHT22;24786;51.984;5.872;2022-11-06T11:05:25;12.80;99.90
39019;DHT22;24786;51.984;5.872;2022-11-06T11:07:51;12.80;99.90
39019;DHT22;24786;51.984;5.872;2022-11-06T11:12:48;12.90;99.90
39019;DHT22;24786;51.984;5.872;2022-11-06T11:15:17;12.90;99.90
39019;DHT22;24786;51.984;5.872;2022-11-06T11:20:42;12.90;99.90
39019;DHT22;24786;51.984;5.872;2022-11-06T11:25:46;12.80;99.90
39019;DHT22;24786;51.984;5.872;2022-11-06T11:28:24;12.80;99.90
39019;DHT22;24786;51.984;5.872;2022-11-06T11:30:52;12.90;99.90
39019;DHT22;24786;51.984;5.872;2022-11-06T11:33:21;12.80;99.90
39019;DHT22;24786;51.984;5.872;2022-11-06T11:35:48;12.80;99.90
39019;DHT22;24786;51.984;5.872;2022-11-06T11:38:17;12.80;99.90
39019;DHT22;24786;51.984;5.872;2022-11-06T11:40:43;12.90;99.90
39019;DHT22;24786;51.984;5.872;2022-11-06T11:43:27;12.80;99.90
39019;DHT22;24786;51.984;5.872;2022-11-06T11:48:45;12.90;99.90
39019;DHT22;24786;51.984;5.872;2022-11-06T11:51:29;12.90;99.90
39019;DHT22;24786;51.984;5.872;2022-11-06T11:57:04;12.90;99.90
39019;DHT22;24786;51.984;5.872;2022-11-06T11:59:46;12.90;99.90
39019;DHT22;24786;51.984;5.872;2022-11-06T12:04:46;13.00;99.90
39019;DHT22;24786;51.984;5.872;2022-11-06T12:07:29;13.00;99.90
39019;DHT22;24786;51.984;5.872;2022-11-06T12:09:58;13.00;99.90
39019;DHT22;24786;51.984;5.872;2022-11-06T12:12:29;13.00;99.90
39019;DHT22;24786;51.984;5.872;2022-11-06T12:15:18;13.00;99.90
39019;DHT22;24786;51.984;5.872;2022-11-06T12:17:58;13.00;99.90
39019;DHT22;24786;51.984;5.872;2022-11-06T12:21:06;13.00;99.90
39019;DHT22;24786;51.984;5.872;2022-11-06T12:23:47;13.00;99.90
39019;DHT22;24786;51.984;5.872;2022-11-06T12:28:56;12.90;99.90
39019;DHT22;24786;51.984;5.872;2022-11-06T12:31:42;12.80;99.90
39019;DHT22;24786;51.984;5.872;2022-11-06T12:37:12;12.80;99.90
39019;DHT22;24786;51.984;5.872;2022-11-06T12:39:43;12.80;99.90
39019;DHT22;24786;51.984;5.872;2022-11-06T12:42:11;12.70;99.90
39019;DHT22;24786;51.984;5.872;2022-11-06T12:44:37;12.70;99.90
39019;DHT22;24786;51.984;5.872;2022-11-06T12:50:16;12.70;99.90
39019;DHT22;24786;51.984;5.872;2022-11-06T12:53:21;12.80;99.90
39019;DHT22;24786;51.984;5.872;2022-11-06T12:55:54;12.80;99.90
39019;DHT22;24786;51.984;5.872;2022-11-06T13:03:45;12.80;99.90
39019;DHT22;24786;51.984;5.872;2022-11-06T13:06:24;12.80;99.90
39019;DHT22;24786;51.984;5.872;2022-11-06T13:11:33;12.80;99.90
39019;DHT22;24786;51.984;5.872;2022-11-06T13:14:13;12.80;99.90
39019;DHT22;24786;51.984;5.872;2022-11-06T13:17:11;12.80;99.90
39019;DHT22;24786;51.984;5.872;2022-11-06T13:22:36;12.80;99.90
39019;DHT22;24786;51.984;5.872;2022-11-06T13:25:43;12.80;99.90
39019;DHT22;24786;51.984;5.872;2022-11-06T13:30:40;12.80;99.90
39019;DHT22;24786;51.984;5.872;2022-11-06T13:33:19;12.70;99.90
39019;DHT22;24786;51.984;5.872;2022-11-06T13:35:48;12.70;99.90
39019;DHT22;24786;51.984;5.872;2022-11-06T13:38:21;12.70;99.90
39019;DHT22;24786;51.984;5.872;2022-11-06T13:40:51;12.70;99.90
39019;DHT22;24786;51.984;5.872;2022-11-06T13:43:22;12.80;99.90
39019;DHT22;24786;51.984;5.872;2022-11-06T13:46:07;12.70;99.90
39019;DHT22;24786;51.984;5.872;2022-11-06T13:48:37;12.70;99.90
39019;DHT22;24786;51.984;5.872;2022-11-06T13:51:17;12.80;99.90
39019;DHT22;24786;51.984;5.872;2022-11-06T13:53:57;12.70;99.90
39019;DHT22;24786;51.984;5.872;2022-11-06T13:56:42;12.70;99.90
39019;DHT22;24786;51.984;5.872;2022-11-06T14:07:10;12.60;99.90
39019;DHT22;24786;51.984;5.872;2022-11-06T14:09:40;12.50;99.90
39019;DHT22;24786;51.984;5.872;2022-11-06T14:12:11;12.50;99.90
39019;DHT22;24786;51.984;5.872;2022-11-06T14:15:11;12.50;99.90
39019;DHT22;24786;51.984;5.872;2022-11-06T14:18:13;12.50;99.90
39019;DHT22;24786;51.984;5.872;2022-11-06T14:20:45;12.40;99.90
39019;DHT22;24786;51.984;5.872;2022-11-06T14:26:11;12.30;99.90
39019;DHT22;24786;51.984;5.872;2022-11-06T14:28:59;12.30;99.90
39019;DHT22;24786;51.984;5.872;2022-11-06T14:34:55;12.10;99.90
39019;DHT22;24786;51.984;5.872;2022-11-06T14:42:44;12.00;99.90
39019;DHT22;24786;51.984;5.872;2022-11-06T14:45:29;11.90;99.90
39019;DHT22;24786;51.984;5.872;2022-11-06T14:47:55;11.80;99.90
39019;DHT22;24786;51.984;5.872;2022-11-06T14:53:17;11.50;99.90
39019;DHT22;24786;51.984;5.872;2022-11-06T14:58:50;11.40;99.90
39019;DHT22;24786;51.984;5.872;2022-11-06T15:01:30;11.30;99.90
39019;DHT22;24786;51.984;5.872;2022-11-06T15:04:18;11.20;99.90
39019;DHT22;24786;51.984;5.872;2022-11-06T15:06:47;11.10;99.90
39019;DHT22;24786;51.984;5.872;2022-11-06T15:09:45;11.00;99.90
39019;DHT22;24786;51.984;5.872;2022-11-06T15:12:14;10.90;99.90
39019;DHT22;24786;51.984;5.872;2022-11-06T15:17:15;10.70;99.90
39019;DHT22;24786;51.984;5.872;2022-11-06T15:19:46;10.60;99.90
39019;DHT22;24786;51.984;5.872;2022-11-06T15:28:30;10.40;99.90
39019;DHT22;24786;51.984;5.872;2022-11-06T15:30:51;10.30;99.90
39019;DHT22;24786;51.984;5.872;2022-11-06T15:33:44;10.30;99.90
39019;DHT22;24786;51.984;5.872;2022-11-06T15:36:17;10.20;99.90
39019;DHT22;24786;51.984;5.872;2022-11-06T15:38:56;10.10;99.90
39019;DHT22;24786;51.984;5.872;2022-11-06T15:41:30;10.20;99.90
39019;DHT22;24786;51.984;5.872;2022-11-06T15:44:10;10.10;99.90
39019;DHT22;24786;51.984;5.872;2022-11-06T15:46:35;10.00;99.90
39019;DHT22;24786;51.984;5.872;2022-11-06T15:49:06;9.90;99.90
39019;DHT22;24786;51.984;5.872;2022-11-06T15:52:14;9.90;99.90
39019;DHT22;24786;51.984;5.872;2022-11-06T15:54:41;9.80;99.90
39019;DHT22;24786;51.984;5.872;2022-11-06T15:57:42;9.80;99.90
39019;DHT22;24786;51.984;5.872;2022-11-06T16:00:51;9.80;99.90
39019;DHT22;24786;51.984;5.872;2022-11-06T16:03:22;9.60;99.90
39019;DHT22;24786;51.984;5.872;2022-11-06T16:06:09;9.50;99.90
39019;DHT22;24786;51.984;5.872;2022-11-06T16:08:38;9.40;99.90
39019;DHT22;24786;51.984;5.872;2022-11-06T16:11:05;9.50;99.90
39019;DHT22;24786;51.984;5.872;2022-11-06T16:13:41;9.30;99.90
39019;DHT22;24786;51.984;5.872;2022-11-06T16:16:31;9.30;99.90
39019;DHT22;24786;51.984;5.872;2022-11-06T16:18:56;9.20;99.90
39019;DHT22;24786;51.984;5.872;2022-11-06T16:21:29;9.20;99.90
39019;DHT22;24786;51.984;5.872;2022-11-06T16:24:13;9.10;99.90
39019;DHT22;24786;51.984;5.872;2022-11-06T16:26:49;9.10;99.90
39019;DHT22;24786;51.984;5.872;2022-11-06T16:31:42;9.10;99.90
39019;DHT22;24786;51.984;5.872;2022-11-06T16:37:36;9.10;99.90
39019;DHT22;24786;51.984;5.872;2022-11-06T16:39:45;9.10;99.90
39019;DHT22;24786;51.984;5.872;2022-11-06T16:49:42;9.00;99.90
39019;DHT22;24786;51.984;5.872;2022-11-06T16:52:31;8.90;99.90
39019;DHT22;24786;51.984;5.872;2022-11-06T17:00:20;8.90;99.90
39019;DHT22;24786;51.984;5.872;2022-11-06T17:05:14;8.80;99.90
39019;DHT22;24786;51.984;5.872;2022-11-06T17:07:40;8.80;99.90
39019;DHT22;24786;51.984;5.872;2022-11-06T17:10:36;8.80;99.90
39019;DHT22;24786;51.984;5.872;2022-11-06T17:13:25;8.80;99.90
39019;DHT22;24786;51.984;5.872;2022-11-06T17:18:23;8.80;99.90
39019;DHT22;24786;51.984;5.872;2022-11-06T17:20:54;8.80;99.90
39019;DHT22;24786;51.984;5.872;2022-11-06T17:23:21;8.80;99.90
39019;DHT22;24786;51.984;5.872;2022-11-06T17:25:48;8.80;99.90
39019;DHT22;24786;51.984;5.872;2022-11-06T17:28:14;8.90;99.90
39019;DHT22;24786;51.984;5.872;2022-11-06T17:30:40;8.80;99.90
39019;DHT22;24786;51.984;5.872;2022-11-06T17:33:06;8.80;99.90
39019;DHT22;24786;51.984;5.872;2022-11-06T17:35:32;8.80;99.90
39019;DHT22;24786;51.984;5.872;2022-11-06T17:37:57;8.80;99.90
39019;DHT22;24786;51.984;5.872;2022-11-06T17:40:26;8.80;99.90
39019;DHT22;24786;51.984;5.872;2022-11-06T17:42:52;8.90;99.90
39019;DHT22;24786;51.984;5.872;2022-11-06T17:45:17;8.80;99.90
39019;DHT22;24786;51.984;5.872;2022-11-06T17:47:43;8.80;99.90
39019;DHT22;24786;51.984;5.872;2022-11-06T17:50:09;8.90;99.90
39019;DHT22;24786;51.984;5.872;2022-11-06T17:52:34;8.90;99.90
39019;DHT22;24786;51.984;5.872;2022-11-06T17:55:00;8.90;99.90
39019;DHT22;24786;51.984;5.872;2022-11-06T17:57:25;8.90;99.90
39019;DHT22;24786;51.984;5.872;2022-11-06T17:59:51;8.80;99.90
39019;DHT22;24786;51.984;5.872;2022-11-06T18:02:16;8.90;99.90
39019;DHT22;24786;51.984;5.872;2022-11-06T18:04:42;8.90;99.90
39019;DHT22;24786;51.984;5.872;2022-11-06T18:07:08;8.80;99.90
39019;DHT22;24786;51.984;5.872;2022-11-06T18:09:34;8.80;99.90
39019;DHT22;24786;51.984;5.872;2022-11-06T18:12:05;8.80;99.90
39019;DHT22;24786;51.984;5.872;2022-11-06T18:14:31;8.80;99.90
39019;DHT22;24786;51.984;5.872;2022-11-06T18:16:57;8.80;99.90
39019;DHT22;24786;51.984;5.872;2022-11-06T18:19:23;8.80;99.90
39019;DHT22;24786;51.984;5.872;2022-11-06T18:21:49;8.80;99.90
39019;DHT22;24786;51.984;5.872;2022-11-06T18:24:15;8.90;99.90
39019;DHT22;24786;51.984;5.872;2022-11-06T18:26:41;8.90;99.90
39019;DHT22;24786;51.984;5.872;2022-11-06T18:29:07;8.90;99.90
39019;DHT22;24786;51.984;5.872;2022-11-06T18:31:34;8.80;99.90
39019;DHT22;24786;51.984;5.872;2022-11-06T18:34:00;8.90;99.90
39019;DHT22;24786;51.984;5.872;2022-11-06T18:36:26;8.90;99.90